sensor_id;sensor_type;location;lat;lon;timestamp;temperature;humidity
18898;DHT22;9581;49.484;8.556;2023-05-18T00:01:53;12.60;82.40
18898;DHT22;9581;49.484;8.556;2023-05-18T00:04:22;12.40;81.70
18898;DHT22;9581;49.484;8.556;2023-05-18T00:06:50;12.40;82.10
18898;DHT22;9581;49.484;8.556;2023-05-18T00:09:22;12.20;83.70
18898;DHT22;9581;49.484;8.556;2023-05-18T00:11:49;12.60;83.20
18898;DHT22;9581;49.484;8.556;2023-05-18T00:14:16;12.60;82.60
18898;DHT22;9581;49.484;8.556;2023-05-18T00:16:42;12.70;82.90
18898;DHT22;9581;49.484;8.556;2023-05-18T00:19:09;12.70;83.30
18898;DHT22;9581;49.484;8.556;2023-05-18T00:21:41;12.60;84.00
18898;DHT22;9581;49.484;8.556;2023-05-18T00:24:08;12.50;84.00
18898;DHT22;9581;49.484;8.556;2023-05-18T00:26:36;12.20;84.90
18898;DHT22;9581;49.484;8.556;2023-05-18T00:29:03;12.40;85.30
18898;DHT22;9581;49.484;8.556;2023-05-18T00:31:30;12.40;84.50
18898;DHT22;9581;49.484;8.556;2023-05-18T00:34:00;12.30;85.10
18898;DHT22;9581;49.484;8.556;2023-05-18T00:36:28;12.30;85.10
18898;DHT22;9581;49.484;8.556;2023-05-18T00:38:57;12.20;85.10
18898;DHT22;9581;49.484;8.556;2023-05-18T00:41:24;12.30;84.10
18898;DHT22;9581;49.484;8.556;2023-05-18T00:43:51;12.30;84.80
18898;DHT22;9581;49.484;8.556;2023-05-18T00:46:18;12.20;84.20
18898;DHT22;9581;49.484;8.556;2023-05-18T00:48:45;12.30;84.10
18898;DHT22;9581;49.484;8.556;2023-05-18T00:51:12;12.30;84.10
18898;DHT22;9581;49.484;8.556;2023-05-18T00:53:40;12.30;84.10
18898;DHT22;9581;49.484;8.556;2023-05-18T00:56:08;12.20;83.60
18898;DHT22;9581;49.484;8.556;2023-05-18T00:58:35;12.00;84.10
18898;DHT22;9581;49.484;8.556;2023-05-18T01:01:03;12.10;84.40
18898;DHT22;9581;49.484;8.556;2023-05-18T01:03:32;12.10;84.80
18898;DHT22;9581;49.484;8.556;2023-05-18T01:05:59;11.90;84.80
18898;DHT22;9581;49.484;8.556;2023-05-18T01:08:26;12.00;84.80
18898;DHT22;9581;49.484;8.556;2023-05-18T01:10:58;12.10;84.40
18898;DHT22;9581;49.484;8.556;2023-05-18T01:13:34;11.80;84.70
18898;DHT22;9581;49.484;8.556;2023-05-18T01:16:08;11.90;85.30
18898;DHT22;9581;49.484;8.556;2023-05-18T01:18:40;11.50;85.80
18898;DHT22;9581;49.484;8.556;2023-05-18T01:21:17;11.50;86.90
18898;DHT22;9581;49.484;8.556;2023-05-18T01:24:03;11.70;87.10
18898;DHT22;9581;49.484;8.556;2023-05-18T01:26:33;12.00;85.80
18898;DHT22;9581;49.484;8.556;2023-05-18T01:29:04;12.00;86.10
18898;DHT22;9581;49.484;8.556;2023-05-18T01:31:31;11.70;86.50
18898;DHT22;9581;49.484;8.556;2023-05-18T01:33:59;11.50;87.50
18898;DHT22;9581;49.484;8.556;2023-05-18T01:36:25;11.30;88.80
18898;DHT22;9581;49.484;8.556;2023-05-18T01:38:53;11.20;90.10
18898;DHT22;9581;49.484;8.556;2023-05-18T01:41:21;11.60;88.90
18898;DHT22;9581;49.484;8.556;2023-05-18T01:43:59;11.40;89.20
18898;DHT22;9581;49.484;8.556;2023-05-18T01:46:33;11.50;89.30
18898;DHT22;9581;49.484;8.556;2023-05-18T01:49:06;11.30;89.80
18898;DHT22;9581;49.484;8.556;2023-05-18T01:51:40;11.20;89.90
18898;DHT22;9581;49.484;8.556;2023-05-18T01:54:10;11.40;90.10
18898;DHT22;9581;49.484;8.556;2023-05-18T01:56:38;10.90;90.10
18898;DHT22;9581;49.484;8.556;2023-05-18T01:59:06;10.00;92.20
18898;DHT22;9581;49.484;8.556;2023-05-18T02:01:33;10.10;93.60
18898;DHT22;9581;49.484;8.556;2023-05-18T02:04:01;10.10;94.10
18898;DHT22;9581;49.484;8.556;2023-05-18T02:06:27;10.30;94.90
18898;DHT22;9581;49.484;8.556;2023-05-18T02:08:54;10.80;94.10
18898;DHT22;9581;49.484;8.556;2023-05-18T02:11:21;10.60;93.50
18898;DHT22;9581;49.484;8.556;2023-05-18T02:13:48;10.50;93.00
18898;DHT22;9581;49.484;8.556;2023-05-18T02:16:16;10.80;92.80
18898;DHT22;9581;49.484;8.556;2023-05-18T02:18:44;10.90;92.60
18898;DHT22;9581;49.484;8.556;2023-05-18T02:21:11;11.00;92.60
18898;DHT22;9581;49.484;8.556;2023-05-18T02:23:38;10.40;93.90
18898;DHT22;9581;49.484;8.556;2023-05-18T02:26:04;10.50;95.10
18898;DHT22;9581;49.484;8.556;2023-05-18T02:28:31;10.40;95.50
18898;DHT22;9581;49.484;8.556;2023-05-18T02:31:08;10.10;96.60
18898;DHT22;9581;49.484;8.556;2023-05-18T02:33:37;10.20;96.80
18898;DHT22;9581;49.484;8.556;2023-05-18T02:36:07;10.00;98.20
18898;DHT22;9581;49.484;8.556;2023-05-18T02:38:35;10.70;96.70
18898;DHT22;9581;49.484;8.556;2023-05-18T02:41:03;10.90;95.90
18898;DHT22;9581;49.484;8.556;2023-05-18T02:43:30;10.40;96.20
18898;DHT22;9581;49.484;8.556;2023-05-18T02:45:56;10.10;96.80
18898;DHT22;9581;49.484;8.556;2023-05-18T02:48:23;10.30;97.30
18898;DHT22;9581;49.484;8.556;2023-05-18T02:50:52;10.50;96.90
18898;DHT22;9581;49.484;8.556;2023-05-18T02:53:19;10.70;96.20
18898;DHT22;9581;49.484;8.556;2023-05-18T02:55:46;10.40;96.70
18898;DHT22;9581;49.484;8.556;2023-05-18T02:58:13;10.30;96.40
18898;DHT22;9581;49.484;8.556;2023-05-18T03:00:40;10.40;96.30
18898;DHT22;9581;49.484;8.556;2023-05-18T03:03:07;9.90;97.20
18898;DHT22;9581;49.484;8.556;2023-05-18T03:05:35;9.90;98.40
18898;DHT22;9581;49.484;8.556;2023-05-18T03:08:03;9.80;98.30
18898;DHT22;9581;49.484;8.556;2023-05-18T03:10:30;9.80;98.60
18898;DHT22;9581;49.484;8.556;2023-05-18T03:12:57;9.80;98.80
18898;DHT22;9581;49.484;8.556;2023-05-18T03:15:24;9.90;98.80
18898;DHT22;9581;49.484;8.556;2023-05-18T03:17:51;9.50;99.10
18898;DHT22;9581;49.484;8.556;2023-05-18T03:20:18;9.40;99.70
18898;DHT22;9581;49.484;8.556;2023-05-18T03:22:46;9.60;99.90
18898;DHT22;9581;49.484;8.556;2023-05-18T03:25:14;9.50;99.90
18898;DHT22;9581;49.484;8.556;2023-05-18T03:27:41;9.80;99.90
18898;DHT22;9581;49.484;8.556;2023-05-18T03:30:08;9.60;99.90
18898;DHT22;9581;49.484;8.556;2023-05-18T03:32:35;9.70;99.90
18898;DHT22;9581;49.484;8.556;2023-05-18T03:35:03;9.70;99.90
18898;DHT22;9581;49.484;8.556;2023-05-18T03:37:30;10.20;99.60
18898;DHT22;9581;49.484;8.556;2023-05-18T03:39:58;9.80;99.50
18898;DHT22;9581;49.484;8.556;2023-05-18T03:42:27;9.60;99.90
18898;DHT22;9581;49.484;8.556;2023-05-18T03:44:53;9.80;99.90
18898;DHT22;9581;49.484;8.556;2023-05-18T03:47:20;9.60;99.90
18898;DHT22;9581;49.484;8.556;2023-05-18T03:49:47;9.60;99.90
18898;DHT22;9581;49.484;8.556;2023-05-18T03:52:14;9.30;99.90
18898;DHT22;9581;49.484;8.556;2023-05-18T03:54:47;9.50;99.90
18898;DHT22;9581;49.484;8.556;2023-05-18T03:57:14;9.40;99.90
18898;DHT22;9581;49.484;8.556;2023-05-18T03:59:42;9.20;99.90
18898;DHT22;9581;49.484;8.556;2023-05-18T04:02:09;9.40;99.90
18898;DHT22;9581;49.484;8.556;2023-05-18T04:04:36;9.30;99.90
18898;DHT22;9581;49.484;8.556;2023-05-18T04:07:06;9.30;99.90
18898;DHT22;9581;49.484;8.556;2023-05-18T04:09:33;9.20;99.90
18898;DHT22;9581;49.484;8.556;2023-05-18T04:12:00;9.50;99.90
18898;DHT22;9581;49.484;8.556;2023-05-18T04:14:28;9.60;99.90
18898;DHT22;9581;49.484;8.556;2023-05-18T04:16:59;9.40;99.90
18898;DHT22;9581;49.484;8.556;2023-05-18T04:19:30;9.50;99.90
18898;DHT22;9581;49.484;8.556;2023-05-18T04:21:57;9.20;99.90
18898;DHT22;9581;49.484;8.556;2023-05-18T04:24:23;9.20;99.90
18898;DHT22;9581;49.484;8.556;2023-05-18T04:26:51;9.50;99.90
18898;DHT22;9581;49.484;8.556;2023-05-18T04:29:18;9.50;99.90
18898;DHT22;9581;49.484;8.556;2023-05-18T04:31:45;9.70;99.90
18898;DHT22;9581;49.484;8.556;2023-05-18T04:34:14;9.70;99.90
18898;DHT22;9581;49.484;8.556;2023-05-18T04:36:42;9.80;99.90
18898;DHT22;9581;49.484;8.556;2023-05-18T04:39:09;9.80;99.90
18898;DHT22;9581;49.484;8.556;2023-05-18T04:41:36;9.80;99.90
18898;DHT22;9581;49.484;8.556;2023-05-18T04:44:06;9.90;99.90
18898;DHT22;9581;49.484;8.556;2023-05-18T04:46:34;9.90;99.90
18898;DHT22;9581;49.484;8.556;2023-05-18T04:49:04;9.90;99.90
18898;DHT22;9581;49.484;8.556;2023-05-18T04:51:32;10.10;99.90
18898;DHT22;9581;49.484;8.556;2023-05-18T04:53:59;10.30;99.90
18898;DHT22;9581;49.484;8.556;2023-05-18T04:56:27;10.40;99.90
18898;DHT22;9581;49.484;8.556;2023-05-18T04:58:55;10.50;99.90
18898;DHT22;9581;49.484;8.556;2023-05-18T05:01:24;10.80;99.90
18898;DHT22;9581;49.484;8.556;2023-05-18T05:03:50;11.10;99.90
18898;DHT22;9581;49.484;8.556;2023-05-18T05:06:17;11.10;99.90
18898;DHT22;9581;49.484;8.556;2023-05-18T05:08:45;11.10;99.90
18898;DHT22;9581;49.484;8.556;2023-05-18T05:11:12;11.00;99.90
18898;DHT22;9581;49.484;8.556;2023-05-18T05:13:39;11.10;99.90
18898;DHT22;9581;49.484;8.556;2023-05-18T05:16:06;11.20;99.90
18898;DHT22;9581;49.484;8.556;2023-05-18T05:18:32;11.30;99.90
18898;DHT22;9581;49.484;8.556;2023-05-18T05:20:59;11.40;99.90
18898;DHT22;9581;49.484;8.556;2023-05-18T05:23:26;11.20;99.90
18898;DHT22;9581;49.484;8.556;2023-05-18T05:25:54;11.40;99.90
18898;DHT22;9581;49.484;8.556;2023-05-18T05:28:21;11.50;99.90
18898;DHT22;9581;49.484;8.556;2023-05-18T05:30:47;11.60;99.90
18898;DHT22;9581;49.484;8.556;2023-05-18T05:33:14;11.70;99.90
18898;DHT22;9581;49.484;8.556;2023-05-18T05:35:41;11.60;99.90
18898;DHT22;9581;49.484;8.556;2023-05-18T05:38:08;11.70;99.90
18898;DHT22;9581;49.484;8.556;2023-05-18T05:40:34;11.80;99.90
18898;DHT22;9581;49.484;8.556;2023-05-18T05:43:03;11.60;99.90
18898;DHT22;9581;49.484;8.556;2023-05-18T05:45:30;11.80;99.90
18898;DHT22;9581;49.484;8.556;2023-05-18T05:47:57;11.80;99.90
18898;DHT22;9581;49.484;8.556;2023-05-18T05:50:23;12.00;99.90
18898;DHT22;9581;49.484;8.556;2023-05-18T05:52:50;12.10;99.90
18898;DHT22;9581;49.484;8.556;2023-05-18T05:55:17;12.20;99.90
18898;DHT22;9581;49.484;8.556;2023-05-18T05:57:44;12.30;99.90
18898;DHT22;9581;49.484;8.556;2023-05-18T06:00:13;12.30;99.90
18898;DHT22;9581;49.484;8.556;2023-05-18T06:02:40;12.40;99.90
18898;DHT22;9581;49.484;8.556;2023-05-18T06:05:07;12.30;99.90
18898;DHT22;9581;49.484;8.556;2023-05-18T06:07:35;12.40;99.90
18898;DHT22;9581;49.484;8.556;2023-05-18T06:10:02;12.40;99.90
18898;DHT22;9581;49.484;8.556;2023-05-18T06:12:28;12.50;99.90
18898;DHT22;9581;49.484;8.556;2023-05-18T06:14:55;12.50;99.90
18898;DHT22;9581;49.484;8.556;2023-05-18T06:17:24;12.60;99.90
18898;DHT22;9581;49.484;8.556;2023-05-18T06:19:51;12.70;99.90
18898;DHT22;9581;49.484;8.556;2023-05-18T06:22:18;12.60;99.90
18898;DHT22;9581;49.484;8.556;2023-05-18T06:24:45;12.60;99.90
18898;DHT22;9581;49.484;8.556;2023-05-18T06:27:12;12.80;99.90
18898;DHT22;9581;49.484;8.556;2023-05-18T06:29:38;12.80;99.90
18898;DHT22;9581;49.484;8.556;2023-05-18T06:32:06;13.00;99.90
18898;DHT22;9581;49.484;8.556;2023-05-18T06:34:34;13.00;99.90
18898;DHT22;9581;49.484;8.556;2023-05-18T06:37:02;13.20;99.90
18898;DHT22;9581;49.484;8.556;2023-05-18T06:39:29;13.20;99.90
18898;DHT22;9581;49.484;8.556;2023-05-18T06:41:56;13.20;99.60
18898;DHT22;9581;49.484;8.556;2023-05-18T06:44:22;13.20;99.90
18898;DHT22;9581;49.484;8.556;2023-05-18T06:46:49;13.40;99.90
18898;DHT22;9581;49.484;8.556;2023-05-18T06:49:16;13.50;99.90
18898;DHT22;9581;49.484;8.556;2023-05-18T06:51:44;13.60;99.80
18898;DHT22;9581;49.484;8.556;2023-05-18T06:54:12;13.70;99.90
18898;DHT22;9581;49.484;8.556;2023-05-18T06:56:39;13.80;99.50
18898;DHT22;9581;49.484;8.556;2023-05-18T06:59:06;13.80;99.20
18898;DHT22;9581;49.484;8.556;2023-05-18T07:01:33;14.00;99.20
18898;DHT22;9581;49.484;8.556;2023-05-18T07:03:59;14.00;98.90
18898;DHT22;9581;49.484;8.556;2023-05-18T07:06:27;14.10;98.00
18898;DHT22;9581;49.484;8.556;2023-05-18T07:08:55;14.20;98.50
18898;DHT22;9581;49.484;8.556;2023-05-18T07:11:22;14.40;98.30
18898;DHT22;9581;49.484;8.556;2023-05-18T07:13:48;14.50;97.60
18898;DHT22;9581;49.484;8.556;2023-05-18T07:16:15;14.50;97.60
18898;DHT22;9581;49.484;8.556;2023-05-18T07:18:42;14.70;96.10
18898;DHT22;9581;49.484;8.556;2023-05-18T07:21:09;14.80;97.70
18898;DHT22;9581;49.484;8.556;2023-05-18T07:23:36;14.90;97.00
18898;DHT22;9581;49.484;8.556;2023-05-18T07:26:04;15.00;96.70
18898;DHT22;9581;49.484;8.556;2023-05-18T07:28:32;15.00;96.40
18898;DHT22;9581;49.484;8.556;2023-05-18T07:30:59;15.10;96.60
18898;DHT22;9581;49.484;8.556;2023-05-18T07:33:26;15.20;96.10
18898;DHT22;9581;49.484;8.556;2023-05-18T07:35:53;15.30;94.30
18898;DHT22;9581;49.484;8.556;2023-05-18T07:38:20;15.40;95.10
18898;DHT22;9581;49.484;8.556;2023-05-18T07:40:47;15.40;94.50
18898;DHT22;9581;49.484;8.556;2023-05-18T07:43:15;15.80;95.00
18898;DHT22;9581;49.484;8.556;2023-05-18T07:45:42;16.10;95.60
18898;DHT22;9581;49.484;8.556;2023-05-18T07:48:09;16.30;94.50
18898;DHT22;9581;49.484;8.556;2023-05-18T07:50:36;16.40;93.40
18898;DHT22;9581;49.484;8.556;2023-05-18T07:53:03;16.50;93.30
18898;DHT22;9581;49.484;8.556;2023-05-18T07:55:30;16.80;93.00
18898;DHT22;9581;49.484;8.556;2023-05-18T07:57:57;17.00;91.80
18898;DHT22;9581;49.484;8.556;2023-05-18T08:00:26;17.30;91.70
18898;DHT22;9581;49.484;8.556;2023-05-18T08:02:53;17.70;92.20
18898;DHT22;9581;49.484;8.556;2023-05-18T08:05:20;18.10;91.30
18898;DHT22;9581;49.484;8.556;2023-05-18T08:07:47;18.70;92.00
18898;DHT22;9581;49.484;8.556;2023-05-18T08:10:14;19.00;91.30
18898;DHT22;9581;49.484;8.556;2023-05-18T08:12:41;19.10;90.30
18898;DHT22;9581;49.484;8.556;2023-05-18T08:15:08;19.00;90.20
18898;DHT22;9581;49.484;8.556;2023-05-18T08:17:37;19.10;89.70
18898;DHT22;9581;49.484;8.556;2023-05-18T08:20:05;18.70;87.80
18898;DHT22;9581;49.484;8.556;2023-05-18T08:22:32;18.80;89.30
18898;DHT22;9581;49.484;8.556;2023-05-18T08:24:59;18.90;90.00
18898;DHT22;9581;49.484;8.556;2023-05-18T08:27:27;19.20;88.00
18898;DHT22;9581;49.484;8.556;2023-05-18T08:29:54;19.60;87.50
18898;DHT22;9581;49.484;8.556;2023-05-18T08:32:21;20.10;88.50
18898;DHT22;9581;49.484;8.556;2023-05-18T08:34:49;20.10;87.20
18898;DHT22;9581;49.484;8.556;2023-05-18T08:37:16;20.40;84.50
18898;DHT22;9581;49.484;8.556;2023-05-18T08:39:43;20.40;82.70
18898;DHT22;9581;49.484;8.556;2023-05-18T08:42:15;20.90;83.60
18898;DHT22;9581;49.484;8.556;2023-05-18T08:44:49;21.20;83.20
18898;DHT22;9581;49.484;8.556;2023-05-18T08:47:16;21.40;82.60
18898;DHT22;9581;49.484;8.556;2023-05-18T08:49:51;21.60;83.50
18898;DHT22;9581;49.484;8.556;2023-05-18T08:52:24;21.60;80.80
18898;DHT22;9581;49.484;8.556;2023-05-18T08:54:53;21.70;80.70
18898;DHT22;9581;49.484;8.556;2023-05-18T08:57:21;21.40;79.70
18898;DHT22;9581;49.484;8.556;2023-05-18T08:59:51;21.70;76.20
18898;DHT22;9581;49.484;8.556;2023-05-18T09:02:18;22.10;74.40
18898;DHT22;9581;49.484;8.556;2023-05-18T09:04:45;21.40;75.30
18898;DHT22;9581;49.484;8.556;2023-05-18T09:07:15;20.60;74.20
18898;DHT22;9581;49.484;8.556;2023-05-18T09:09:43;21.50;74.60
18898;DHT22;9581;49.484;8.556;2023-05-18T09:12:12;20.80;70.80
18898;DHT22;9581;49.484;8.556;2023-05-18T09:14:40;20.70;74.90
18898;DHT22;9581;49.484;8.556;2023-05-18T09:17:08;20.70;74.40
18898;DHT22;9581;49.484;8.556;2023-05-18T09:19:36;21.20;73.30
18898;DHT22;9581;49.484;8.556;2023-05-18T09:22:03;21.40;73.00
18898;DHT22;9581;49.484;8.556;2023-05-18T09:24:31;22.20;73.50
18898;DHT22;9581;49.484;8.556;2023-05-18T09:26:58;22.80;71.90
18898;DHT22;9581;49.484;8.556;2023-05-18T09:29:25;23.30;70.80
18898;DHT22;9581;49.484;8.556;2023-05-18T09:31:52;23.70;69.80
18898;DHT22;9581;49.484;8.556;2023-05-18T09:34:19;24.00;69.20
18898;DHT22;9581;49.484;8.556;2023-05-18T09:36:46;24.10;68.60
18898;DHT22;9581;49.484;8.556;2023-05-18T09:39:14;23.20;66.80
18898;DHT22;9581;49.484;8.556;2023-05-18T09:41:42;24.00;66.70
18898;DHT22;9581;49.484;8.556;2023-05-18T09:44:09;24.20;67.00
18898;DHT22;9581;49.484;8.556;2023-05-18T09:46:38;24.00;64.90
18898;DHT22;9581;49.484;8.556;2023-05-18T09:49:05;22.80;65.90
18898;DHT22;9581;49.484;8.556;2023-05-18T09:51:34;22.10;68.00
18898;DHT22;9581;49.484;8.556;2023-05-18T09:54:01;24.60;66.20
18898;DHT22;9581;49.484;8.556;2023-05-18T09:56:30;25.60;64.40
18898;DHT22;9581;49.484;8.556;2023-05-18T09:59:09;25.80;62.10
18898;DHT22;9581;49.484;8.556;2023-05-18T10:01:36;26.70;59.70
18898;DHT22;9581;49.484;8.556;2023-05-18T10:04:03;26.70;57.60
18898;DHT22;9581;49.484;8.556;2023-05-18T10:06:31;25.90;60.50
18898;DHT22;9581;49.484;8.556;2023-05-18T10:09:00;26.60;59.40
18898;DHT22;9581;49.484;8.556;2023-05-18T10:11:30;27.70;58.90
18898;DHT22;9581;49.484;8.556;2023-05-18T10:13:58;28.20;57.60
18898;DHT22;9581;49.484;8.556;2023-05-18T10:16:26;28.20;57.60
18898;DHT22;9581;49.484;8.556;2023-05-18T10:18:53;28.80;56.10
18898;DHT22;9581;49.484;8.556;2023-05-18T10:21:21;29.40;55.60
18898;DHT22;9581;49.484;8.556;2023-05-18T10:23:49;29.20;55.40
18898;DHT22;9581;49.484;8.556;2023-05-18T10:26:18;28.70;53.30
18898;DHT22;9581;49.484;8.556;2023-05-18T10:28:49;29.60;54.10
18898;DHT22;9581;49.484;8.556;2023-05-18T10:31:18;30.20;55.50
18898;DHT22;9581;49.484;8.556;2023-05-18T10:33:49;29.10;52.50
18898;DHT22;9581;49.484;8.556;2023-05-18T10:36:17;27.40;54.00
18898;DHT22;9581;49.484;8.556;2023-05-18T10:38:45;26.40;55.40
18898;DHT22;9581;49.484;8.556;2023-05-18T10:41:13;26.40;54.60
18898;DHT22;9581;49.484;8.556;2023-05-18T10:43:42;26.60;54.20
18898;DHT22;9581;49.484;8.556;2023-05-18T10:46:10;26.20;54.00
18898;DHT22;9581;49.484;8.556;2023-05-18T10:48:38;28.20;54.40
18898;DHT22;9581;49.484;8.556;2023-05-18T10:51:07;30.20;51.90
18898;DHT22;9581;49.484;8.556;2023-05-18T10:53:34;30.80;51.30
18898;DHT22;9581;49.484;8.556;2023-05-18T10:56:02;30.70;51.20
18898;DHT22;9581;49.484;8.556;2023-05-18T10:58:30;31.00;49.10
18898;DHT22;9581;49.484;8.556;2023-05-18T11:00:59;31.40;49.00
18898;DHT22;9581;49.484;8.556;2023-05-18T11:03:27;31.30;48.30
18898;DHT22;9581;49.484;8.556;2023-05-18T11:06:07;32.40;48.80
18898;DHT22;9581;49.484;8.556;2023-05-18T11:08:41;30.90;51.20
18898;DHT22;9581;49.484;8.556;2023-05-18T11:11:09;32.10;48.20
18898;DHT22;9581;49.484;8.556;2023-05-18T11:13:42;32.40;47.20
18898;DHT22;9581;49.484;8.556;2023-05-18T11:16:09;30.20;47.80
18898;DHT22;9581;49.484;8.556;2023-05-18T11:18:41;29.60;49.80
18898;DHT22;9581;49.484;8.556;2023-05-18T11:21:29;30.60;48.80
18898;DHT22;9581;49.484;8.556;2023-05-18T11:24:17;31.20;48.30
18898;DHT22;9581;49.484;8.556;2023-05-18T11:26:46;31.30;48.10
18898;DHT22;9581;49.484;8.556;2023-05-18T11:29:18;33.30;47.80
18898;DHT22;9581;49.484;8.556;2023-05-18T11:31:46;32.70;45.60
18898;DHT22;9581;49.484;8.556;2023-05-18T11:34:41;32.40;46.70
18898;DHT22;9581;49.484;8.556;2023-05-18T11:37:12;32.70;45.50
18898;DHT22;9581;49.484;8.556;2023-05-18T11:39:40;32.50;46.90
18898;DHT22;9581;49.484;8.556;2023-05-18T11:42:08;31.80;46.50
18898;DHT22;9581;49.484;8.556;2023-05-18T11:44:35;32.50;47.10
18898;DHT22;9581;49.484;8.556;2023-05-18T11:47:07;33.50;46.50
18898;DHT22;9581;49.484;8.556;2023-05-18T11:49:40;33.60;46.10
18898;DHT22;9581;49.484;8.556;2023-05-18T11:52:14;32.70;46.50
18898;DHT22;9581;49.484;8.556;2023-05-18T11:54:43;32.80;47.40
18898;DHT22;9581;49.484;8.556;2023-05-18T11:57:13;32.60;46.10
18898;DHT22;9581;49.484;8.556;2023-05-18T11:59:41;31.80;45.70
18898;DHT22;9581;49.484;8.556;2023-05-18T12:02:09;31.00;48.00
18898;DHT22;9581;49.484;8.556;2023-05-18T12:04:44;30.60;48.60
18898;DHT22;9581;49.484;8.556;2023-05-18T12:07:13;28.30;49.40
18898;DHT22;9581;49.484;8.556;2023-05-18T12:09:40;29.90;48.20
18898;DHT22;9581;49.484;8.556;2023-05-18T12:12:08;28.00;49.50
18898;DHT22;9581;49.484;8.556;2023-05-18T12:14:39;27.70;50.80
18898;DHT22;9581;49.484;8.556;2023-05-18T12:17:06;26.90;52.40
18898;DHT22;9581;49.484;8.556;2023-05-18T12:19:41;26.80;53.20
18898;DHT22;9581;49.484;8.556;2023-05-18T12:22:08;26.30;51.40
18898;DHT22;9581;49.484;8.556;2023-05-18T12:24:37;26.10;53.10
18898;DHT22;9581;49.484;8.556;2023-05-18T12:27:07;25.60;53.20
18898;DHT22;9581;49.484;8.556;2023-05-18T12:29:37;25.70;53.80
18898;DHT22;9581;49.484;8.556;2023-05-18T12:32:05;25.80;53.20
18898;DHT22;9581;49.484;8.556;2023-05-18T12:34:32;25.60;53.20
18898;DHT22;9581;49.484;8.556;2023-05-18T12:36:59;25.20;55.50
18898;DHT22;9581;49.484;8.556;2023-05-18T12:39:26;25.30;54.10
18898;DHT22;9581;49.484;8.556;2023-05-18T12:42:07;25.20;53.90
18898;DHT22;9581;49.484;8.556;2023-05-18T12:44:34;25.20;53.50
18898;DHT22;9581;49.484;8.556;2023-05-18T12:47:01;24.80;53.80
18898;DHT22;9581;49.484;8.556;2023-05-18T12:49:28;25.20;54.90
18898;DHT22;9581;49.484;8.556;2023-05-18T12:51:55;25.40;53.80
18898;DHT22;9581;49.484;8.556;2023-05-18T12:54:27;25.30;54.40
18898;DHT22;9581;49.484;8.556;2023-05-18T12:56:55;24.90;55.00
18898;DHT22;9581;49.484;8.556;2023-05-18T12:59:25;24.60;54.80
18898;DHT22;9581;49.484;8.556;2023-05-18T13:01:52;24.80;55.10
18898;DHT22;9581;49.484;8.556;2023-05-18T13:04:19;24.70;55.40
18898;DHT22;9581;49.484;8.556;2023-05-18T13:06:46;24.80;55.50
18898;DHT22;9581;49.484;8.556;2023-05-18T13:09:14;24.80;55.00
18898;DHT22;9581;49.484;8.556;2023-05-18T13:11:45;24.80;53.30
18898;DHT22;9581;49.484;8.556;2023-05-18T13:14:19;24.90;54.80
18898;DHT22;9581;49.484;8.556;2023-05-18T13:16:49;25.00;54.10
18898;DHT22;9581;49.484;8.556;2023-05-18T13:19:16;24.90;53.50
18898;DHT22;9581;49.484;8.556;2023-05-18T13:21:44;25.00;54.20
18898;DHT22;9581;49.484;8.556;2023-05-18T13:24:12;25.10;55.10
18898;DHT22;9581;49.484;8.556;2023-05-18T13:26:39;25.20;54.20
18898;DHT22;9581;49.484;8.556;2023-05-18T13:29:06;24.90;53.60
18898;DHT22;9581;49.484;8.556;2023-05-18T13:31:35;25.10;55.90
18898;DHT22;9581;49.484;8.556;2023-05-18T13:34:02;25.00;55.10
18898;DHT22;9581;49.484;8.556;2023-05-18T13:36:29;24.80;54.80
18898;DHT22;9581;49.484;8.556;2023-05-18T13:38:58;25.30;54.20
18898;DHT22;9581;49.484;8.556;2023-05-18T13:41:26;25.00;53.80
18898;DHT22;9581;49.484;8.556;2023-05-18T13:43:53;24.90;53.70
18898;DHT22;9581;49.484;8.556;2023-05-18T13:46:19;24.90;56.30
18898;DHT22;9581;49.484;8.556;2023-05-18T13:48:47;25.10;55.10
18898;DHT22;9581;49.484;8.556;2023-05-18T13:51:15;24.80;53.20
18898;DHT22;9581;49.484;8.556;2023-05-18T13:53:41;24.70;54.50
18898;DHT22;9581;49.484;8.556;2023-05-18T13:56:08;25.10;55.20
18898;DHT22;9581;49.484;8.556;2023-05-18T13:58:35;25.00;53.60
18898;DHT22;9581;49.484;8.556;2023-05-18T14:01:02;24.70;54.00
18898;DHT22;9581;49.484;8.556;2023-05-18T14:03:32;24.90;54.40
18898;DHT22;9581;49.484;8.556;2023-05-18T14:06:02;24.70;54.10
18898;DHT22;9581;49.484;8.556;2023-05-18T14:08:29;24.90;54.10
18898;DHT22;9581;49.484;8.556;2023-05-18T14:10:55;24.90;54.40
18898;DHT22;9581;49.484;8.556;2023-05-18T14:13:22;25.10;53.20
18898;DHT22;9581;49.484;8.556;2023-05-18T14:15:49;25.30;54.40
18898;DHT22;9581;49.484;8.556;2023-05-18T14:18:16;25.10;53.30
18898;DHT22;9581;49.484;8.556;2023-05-18T14:20:42;24.80;52.90
18898;DHT22;9581;49.484;8.556;2023-05-18T14:23:12;25.60;54.20
18898;DHT22;9581;49.484;8.556;2023-05-18T14:25:39;26.00;53.60
18898;DHT22;9581;49.484;8.556;2023-05-18T14:28:09;27.70;50.20
18898;DHT22;9581;49.484;8.556;2023-05-18T14:30:35;30.90;50.00
18898;DHT22;9581;49.484;8.556;2023-05-18T14:33:02;36.30;45.30
18898;DHT22;9581;49.484;8.556;2023-05-18T14:35:29;39.90;39.70
18898;DHT22;9581;49.484;8.556;2023-05-18T14:37:56;41.50;38.50
18898;DHT22;9581;49.484;8.556;2023-05-18T14:40:24;41.90;35.20
18898;DHT22;9581;49.484;8.556;2023-05-18T14:42:51;42.00;34.00
18898;DHT22;9581;49.484;8.556;2023-05-18T14:45:18;37.80;36.80
18898;DHT22;9581;49.484;8.556;2023-05-18T14:47:45;37.60;36.60
18898;DHT22;9581;49.484;8.556;2023-05-18T14:50:12;35.80;37.60
18898;DHT22;9581;49.484;8.556;2023-05-18T14:52:39;39.60;35.60
18898;DHT22;9581;49.484;8.556;2023-05-18T14:55:06;41.70;34.30
18898;DHT22;9581;49.484;8.556;2023-05-18T14:57:34;41.60;34.70
18898;DHT22;9581;49.484;8.556;2023-05-18T15:00:01;39.10;33.30
18898;DHT22;9581;49.484;8.556;2023-05-18T15:02:28;33.80;39.00
18898;DHT22;9581;49.484;8.556;2023-05-18T15:04:55;32.80;37.70
18898;DHT22;9581;49.484;8.556;2023-05-18T15:07:22;35.90;38.40
18898;DHT22;9581;49.484;8.556;2023-05-18T15:09:48;38.40;35.20
18898;DHT22;9581;49.484;8.556;2023-05-18T15:12:15;39.50;33.70
18898;DHT22;9581;49.484;8.556;2023-05-18T15:14:45;39.80;34.00
18898;DHT22;9581;49.484;8.556;2023-05-18T15:17:12;40.30;33.70
18898;DHT22;9581;49.484;8.556;2023-05-18T15:19:39;39.20;33.30
18898;DHT22;9581;49.484;8.556;2023-05-18T15:22:06;39.40;34.30
18898;DHT22;9581;49.484;8.556;2023-05-18T15:24:33;38.70;33.70
18898;DHT22;9581;49.484;8.556;2023-05-18T15:27:00;37.10;35.10
18898;DHT22;9581;49.484;8.556;2023-05-18T15:29:27;37.00;34.30
18898;DHT22;9581;49.484;8.556;2023-05-18T15:31:55;35.60;36.20
18898;DHT22;9581;49.484;8.556;2023-05-18T15:34:22;36.50;35.60
18898;DHT22;9581;49.484;8.556;2023-05-18T15:36:49;31.80;38.20
18898;DHT22;9581;49.484;8.556;2023-05-18T15:39:17;31.10;40.80
18898;DHT22;9581;49.484;8.556;2023-05-18T15:41:44;34.00;37.20
18898;DHT22;9581;49.484;8.556;2023-05-18T15:44:11;33.80;36.90
18898;DHT22;9581;49.484;8.556;2023-05-18T15:46:39;34.60;36.10
18898;DHT22;9581;49.484;8.556;2023-05-18T15:49:07;35.30;37.10
18898;DHT22;9581;49.484;8.556;2023-05-18T15:51:34;32.70;38.70
18898;DHT22;9581;49.484;8.556;2023-05-18T15:54:01;31.40;40.70